Aviation Digital Data Service (ADDS)

Output produced by METARs form (1109 UTC 24 April 2017)
found at http://www.aviationweather.gov/adds/metars/
 
TAF TFFR 231700Z 2318/2418 11012KT 9999 SCT025 SCT035 
     TEMPO 2318/2402 3000 SHRA SCT018TCU 
     PROB30 
     TEMPO 2318/2321 SCT012CB 
     PROB30 
     TEMPO 2406/2415 4000 SHRA SCT018TCU